Time;durP1;ratioP1;P1;durP2;ratioP2;P2;SDS_P1;SDS_P2;PMS_P1;PMS_P2;Temp;Humidity;BMP_temperature;BMP_pressure;BME280_temperature;BME280_humidity;BME280_pressure;Samples;Min_cycle;Max_cycle;Signal;HPM_P1;HPM_P2
2022/12/02 00:00:22;;;;;;;36.13;23.80;;;;;;;2.68;72.76;102760.54;1783438;80;20952;-81
2022/12/02 00:02:51;;;;;;;37.93;23.47;;;;;;;2.65;72.84;102761.95;1784720;80;20967;-83
2022/12/02 00:05:32;;;;;;;40.98;24.52;;;;;;;2.61;72.83;102754.27;1782858;80;21377;-83
2022/12/02 00:08:00;;;;;;;39.25;23.00;;;;;;;2.57;72.82;102753.84;1783935;80;20971;-81
2022/12/02 00:10:33;;;;;;;40.28;22.75;;;;;;;2.52;72.82;102749.53;1754372;80;21743;-83
2022/12/02 00:13:27;;;;;;;39.92;22.45;;;;;;;2.49;72.87;102751.85;1782226;80;21093;-80
2022/12/02 00:16:02;;;;;;;42.27;23.50;;;;;;;2.52;72.96;102750.84;1782528;80;20983;-81
2022/12/02 00:18:29;;;;;;;40.67;23.20;;;;;;;2.56;73.12;102754.23;1780502;80;21033;-83
2022/12/02 00:20:56;;;;;;;40.70;23.32;;;;;;;2.59;73.06;102748.02;1783144;80;21042;-83
2022/12/02 00:23:23;;;;;;;38.00;22.40;;;;;;;2.61;72.99;102750.73;1783884;80;21684;-83
2022/12/02 00:25:51;;;;;;;39.33;22.37;;;;;;;2.55;72.97;102752.39;1784666;80;21282;-83
2022/12/02 00:28:18;;;;;;;40.12;22.70;;;;;;;2.57;73.07;102745.64;1781541;80;21474;-81
2022/12/02 00:30:45;;;;;;;41.08;22.85;;;;;;;2.56;73.05;102747.73;1784824;80;21480;-81
2022/12/02 00:33:11;;;;;;;41.33;22.52;;;;;;;2.53;73.00;102750.05;1783670;80;21035;-81
2022/12/02 00:35:38;;;;;;;41.88;22.75;;;;;;;2.50;73.06;102753.30;1781923;80;22952;-83
2022/12/02 00:38:05;;;;;;;41.53;23.95;;;;;;;2.49;73.08;102754.45;1781368;80;20972;-81
2022/12/02 00:40:31;;;;;;;40.00;22.73;;;;;;;2.50;73.18;102747.19;1783126;80;21051;-81
2022/12/02 00:46:30;;;;;;;39.45;22.35;;;;;;;2.50;73.13;102747.19;1782614;80;20979;-83
2022/12/02 00:48:11;;;;;;;40.10;21.93;;;;;;;2.50;73.03;102752.39;1783655;80;21842;-83
2022/12/02 00:50:38;;;;;;;37.67;22.25;;;;;;;2.48;73.08;102748.75;1784352;80;21260;-83
2022/12/02 00:53:04;;;;;;;37.23;21.10;;;;;;;2.49;73.18;102744.95;1783243;78;21042;-81
2022/12/02 00:55:31;;;;;;;37.93;22.30;;;;;;;2.47;73.02;102736.51;1781188;80;21002;-81
2022/12/02 00:57:58;;;;;;;33.95;20.52;;;;;;;2.40;73.03;102741.53;1785183;80;21081;-83
2022/12/02 01:00:25;;;;;;;35.43;21.82;;;;;;;2.31;72.96;102733.84;1784317;80;22514;-83
2022/12/02 01:02:51;;;;;;;38.38;21.73;;;;;;;2.29;73.06;102739.28;1785184;80;21445;-81
2022/12/02 01:05:18;;;;;;;35.17;20.85;;;;;;;2.28;73.16;102736.55;1784327;80;20990;-80
2022/12/02 01:07:46;;;;;;;37.23;22.50;;;;;;;2.29;73.17;102735.75;1782440;80;21524;-82
2022/12/02 01:10:13;;;;;;;39.20;23.90;;;;;;;2.28;73.24;102734.84;1782270;80;21025;-82
2022/12/02 01:12:40;;;;;;;39.80;23.05;;;;;;;2.33;73.35;102730.09;1780862;80;23235;-80
2022/12/02 01:15:08;;;;;;;33.13;20.52;;;;;;;2.35;73.35;102727.23;1779948;80;20962;-84
2022/12/02 01:17:35;;;;;;;37.05;22.37;;;;;;;2.40;73.39;102730.23;1779647;80;21016;-82
2022/12/02 01:20:01;;;;;;;35.85;21.95;;;;;;;2.41;73.36;102726.47;1780661;80;21021;-80
2022/12/02 01:22:28;;;;;;;34.27;21.33;;;;;;;2.42;73.28;102728.67;1781760;80;20970;-80
2022/12/02 01:24:55;;;;;;;36.23;22.45;;;;;;;2.43;73.36;102727.92;1782127;80;21730;-82
2022/12/02 01:27:22;;;;;;;39.40;23.32;;;;;;;2.43;73.34;102721.02;1781996;80;21018;-82
2022/12/02 01:29:49;;;;;;;38.60;21.62;;;;;;;2.43;73.32;102720.12;1778551;80;21031;-82
2022/12/02 01:32:18;;;;;;;40.90;22.87;;;;;;;2.42;73.32;102726.08;1781795;80;21071;-80
2022/12/02 01:34:44;;;;;;;39.70;23.00;;;;;;;2.40;73.30;102722.03;1783616;78;20999;-82
2022/12/02 01:37:13;;;;;;;43.98;24.47;;;;;;;2.40;73.36;102725.03;1780866;80;22347;-80
2022/12/02 01:39:40;;;;;;;48.25;26.10;;;;;;;2.42;73.38;102726.08;1779660;80;20962;-80
2022/12/02 01:42:06;;;;;;;42.25;23.55;;;;;;;2.37;73.25;102715.68;1780229;80;21201;-80
2022/12/02 01:44:33;;;;;;;41.68;22.48;;;;;;;2.29;73.22;102727.59;1781035;80;21345;-80
2022/12/02 01:47:00;;;;;;;40.20;23.60;;;;;;;2.27;73.37;102726.91;1785437;78;21327;-80
2022/12/02 01:49:26;;;;;;;46.10;24.65;;;;;;;2.28;73.46;102727.45;1780993;78;21851;-82
2022/12/02 01:51:53;;;;;;;42.75;23.80;;;;;;;2.28;73.45;102724.85;1781024;80;20974;-83
2022/12/02 01:54:20;;;;;;;42.40;23.85;;;;;;;2.30;73.57;102728.09;1780394;80;21014;-82
2022/12/02 01:56:47;;;;;;;42.17;24.35;;;;;;;2.32;73.54;102725.64;1780532;80;21025;-80
2022/12/02 01:59:14;;;;;;;40.08;24.65;;;;;;;2.26;73.46;102723.41;1781350;80;21001;-80
2022/12/02 02:01:41;;;;;;;38.70;23.90;;;;;;;2.22;73.46;102717.81;1749759;80;22596;-82
2022/12/02 02:04:08;;;;;;;38.55;23.95;;;;;;;2.19;73.55;102711.92;1780679;80;21011;-80
2022/12/02 02:06:38;;;;;;;40.43;23.02;;;;;;;2.19;73.61;102710.63;1781369;80;21817;-82
2022/12/02 02:09:06;;;;;;;36.73;23.73;;;;;;;2.18;73.65;102707.89;1752292;80;22023;-80
2022/12/02 02:11:34;;;;;;;38.02;22.37;;;;;;;2.21;73.69;102705.58;1750089;80;21046;-82
2022/12/02 02:14:02;;;;;;;42.40;24.18;;;;;;;2.16;73.58;102708.14;1780930;80;22857;-82
2022/12/02 02:16:29;;;;;;;37.88;22.77;;;;;;;2.08;73.55;102705.79;1778153;80;20956;-82
2022/12/02 02:18:56;;;;;;;41.73;23.60;;;;;;;1.99;73.49;102712.74;1781659;80;21023;-81
2022/12/02 02:21:27;;;;;;;37.55;22.52;;;;;;;1.92;73.61;102712.55;1781537;80;21007;-84
2022/12/02 02:23:54;;;;;;;34.75;21.33;;;;;;;1.92;73.75;102713.86;1770148;80;20983;-82
2022/12/02 02:26:20;;;;;;;40.30;23.05;;;;;;;1.95;73.89;102717.11;1781426;80;21714;-82
2022/12/02 02:28:47;;;;;;;39.88;22.32;;;;;;;1.94;73.84;102716.20;1752272;80;20938;-82
2022/12/02 02:31:14;;;;;;;36.98;21.10;;;;;;;1.97;73.89;102712.05;1782124;78;21932;-80
2022/12/02 02:33:40;;;;;;;37.38;21.68;;;;;;;1.99;73.91;102711.80;1781979;80;20980;-79
2022/12/02 02:36:07;;;;;;;35.33;20.57;;;;;;;2.03;73.99;102705.75;1781447;80;21467;-80
2022/12/02 02:38:34;;;;;;;41.63;22.37;;;;;;;2.05;73.89;102704.20;1781247;80;21719;-79
2022/12/02 02:41:01;;;;;;;37.42;21.48;;;;;;;2.07;73.94;102705.64;1749559;80;20992;-80
2022/12/02 02:43:28;;;;;;;38.73;21.30;;;;;;;2.07;73.85;102703.05;1781313;80;20942;-79
2022/12/02 02:45:54;;;;;;;34.33;20.90;;;;;;;2.05;73.82;102708.09;1745449;80;21014;-79
2022/12/02 02:48:21;;;;;;;36.90;21.52;;;;;;;2.06;73.80;102707.70;1782352;78;20978;-82
2022/12/02 02:50:48;;;;;;;41.33;20.68;;;;;;;2.07;73.84;102709.14;1781611;80;21738;-79
2022/12/02 02:53:16;;;;;;;37.15;20.48;;;;;;;2.06;73.82;102704.70;1781094;80;21515;-79
2022/12/02 02:55:43;;;;;;;40.80;20.50;;;;;;;2.07;73.83;102710.45;1781507;80;20998;-79
2022/12/02 02:58:14;;;;;;;36.40;21.15;;;;;;;2.07;73.78;102705.25;1782862;80;20963;-80
2022/12/02 03:00:53;;;;;;;38.58;20.97;;;;;;;2.08;73.74;102704.48;1782336;80;20968;-82
2022/12/02 03:03:21;;;;;;;41.63;22.85;;;;;;;2.05;73.64;102709.79;1782242;80;21666;-82
2022/12/02 03:05:49;;;;;;;35.33;20.90;;;;;;;2.01;73.68;102706.00;1781952;80;21034;-80
2022/12/02 03:08:15;;;;;;;36.33;21.07;;;;;;;2.02;73.74;102705.60;1781656;80;20983;-80
2022/12/02 03:10:42;;;;;;;43.30;22.17;;;;;;;1.97;73.66;102705.56;1781747;80;21210;-82
2022/12/02 03:13:09;;;;;;;42.13;23.02;;;;;;;1.93;73.76;102718.29;1779223;80;21935;-82
2022/12/02 03:15:36;;;;;;;38.35;21.82;;;;;;;1.91;73.74;102714.61;1782540;80;22467;-80
2022/12/02 03:18:02;;;;;;;38.85;22.13;;;;;;;1.88;73.83;102714.75;1780424;80;21249;-80
2022/12/02 03:20:29;;;;;;;42.98;24.50;;;;;;;1.86;73.89;102714.60;1781068;80;21476;-80
2022/12/02 03:22:56;;;;;;;41.28;22.87;;;;;;;1.85;73.98;102712.76;1782586;80;20967;-80
2022/12/02 03:25:23;;;;;;;43.40;23.55;;;;;;;1.86;74.05;102713.30;1781962;80;21547;-80
2022/12/02 03:27:49;;;;;;;45.10;24.67;;;;;;;1.87;74.06;102706.41;1781362;78;22624;-79
2022/12/02 03:30:16;;;;;;;43.90;23.52;;;;;;;1.86;74.06;102706.81;1780777;80;21011;-80
2022/12/02 03:32:43;;;;;;;42.03;23.95;;;;;;;1.87;74.10;102706.41;1779093;80;21053;-79
2022/12/02 03:35:09;;;;;;;42.43;23.20;;;;;;;1.87;74.14;102698.23;1779950;80;21070;-79
2022/12/02 03:37:36;;;;;;;41.68;22.50;;;;;;;1.88;74.14;102698.77;1782504;80;20990;-82
2022/12/02 03:40:03;;;;;;;40.95;22.05;;;;;;;1.89;74.11;102699.67;1782350;80;21901;-82
2022/12/02 03:42:30;;;;;;;43.50;23.15;;;;;;;1.85;74.03;102697.18;1780817;80;21186;-82
2022/12/02 03:44:57;;;;;;;41.33;22.85;;;;;;;1.88;74.14;102698.77;1782209;80;20980;-82
2022/12/02 03:47:23;;;;;;;43.92;23.80;;;;;;;1.86;74.06;102694.19;1781363;80;21460;-82
2022/12/02 03:49:50;;;;;;;44.77;24.10;;;;;;;1.85;74.09;102693.68;1782419;80;20999;-80
2022/12/02 03:52:17;;;;;;;47.98;24.27;;;;;;;1.84;74.11;102702.23;1782144;80;21781;-79
2022/12/02 03:54:43;;;;;;;42.70;24.12;;;;;;;1.83;74.11;102701.72;1781192;80;21081;-82
2022/12/02 03:57:10;;;;;;;46.18;24.43;;;;;;;1.81;74.15;102693.78;1780511;80;21041;-82
2022/12/02 03:59:37;;;;;;;47.98;24.35;;;;;;;1.83;74.23;102697.83;1780451;80;21075;-81
2022/12/02 04:02:04;;;;;;;46.45;25.20;;;;;;;1.87;74.27;102699.92;1781578;80;21000;-82
2022/12/02 04:04:30;;;;;;;46.73;25.37;;;;;;;1.90;74.17;102702.81;1780202;80;21720;-82
2022/12/02 04:06:57;;;;;;;45.20;24.45;;;;;;;1.89;74.21;102697.98;1781380;80;20950;-82
2022/12/02 04:09:24;;;;;;;46.63;25.70;;;;;;;1.89;74.13;102707.07;1779498;80;21522;-79
2022/12/02 04:11:51;;;;;;;43.95;24.20;;;;;;;1.89;74.14;102708.37;1774263;80;22374;-79
2022/12/02 04:14:17;;;;;;;46.10;24.07;;;;;;;1.88;74.11;102704.36;1779436;80;21043;-81
2022/12/02 04:16:44;;;;;;;47.17;24.60;;;;;;;1.85;74.10;102704.06;1781927;80;22477;-84
2022/12/02 04:19:12;;;;;;;48.42;26.20;;;;;;;1.88;74.18;102700.47;1783046;80;20987;-82
2022/12/02 04:21:38;;;;;;;45.60;25.75;;;;;;;1.87;74.16;102706.02;1782129;80;21022;-80
2022/12/02 04:24:06;;;;;;;45.05;25.82;;;;;;;1.88;74.12;102700.47;1777636;79;21071;-81
2022/12/02 04:26:33;;;;;;;49.00;26.12;;;;;;;1.91;74.23;102703.32;1779066;80;21027;-83
2022/12/02 04:28:59;;;;;;;44.93;24.18;;;;;;;1.94;74.20;102701.02;1782753;80;21738;-80
2022/12/02 04:31:26;;;;;;;43.05;24.15;;;;;;;1.96;74.14;102699.47;1777594;80;21460;-82
2022/12/02 04:33:53;;;;;;;47.38;24.82;;;;;;;1.96;74.13;102695.97;1780602;79;21815;-82
2022/12/02 04:36:19;;;;;;;52.98;26.60;;;;;;;1.99;74.17;102693.63;1783184;79;21446;-82
2022/12/02 04:38:46;;;;;;;45.48;24.98;;;;;;;2.00;74.14;102690.27;1784357;79;21035;-81
2022/12/02 04:41:13;;;;;;;48.80;24.92;;;;;;;2.01;74.08;102689.12;1783570;80;22982;-82
2022/12/02 04:43:40;;;;;;;45.67;24.92;;;;;;;2.02;74.10;102687.42;1783698;80;21018;-82
2022/12/02 04:46:07;;;;;;;42.03;24.45;;;;;;;2.00;74.01;102683.38;1786373;79;20982;-82
2022/12/02 04:48:33;;;;;;;47.75;24.95;;;;;;;1.98;74.01;102687.92;1781120;79;21002;-82
2022/12/02 04:51:00;;;;;;;51.37;26.15;;;;;;;1.99;74.01;102687.13;1780049;79;21059;-81
2022/12/02 04:53:27;;;;;;;43.70;25.00;;;;;;;1.97;74.01;102690.91;1783135;79;22542;-82
2022/12/02 04:55:53;;;;;;;44.05;25.35;;;;;;;1.98;74.09;102692.72;1741014;80;21041;-79
2022/12/02 04:58:20;;;;;;;46.85;26.30;;;;;;;2.02;74.13;102690.02;1761090;80;20984;-79
2022/12/02 05:00:48;;;;;;;50.43;24.80;;;;;;;2.02;74.02;102684.43;1729983;80;50143;-77
2022/12/02 05:03:15;;;;;;;47.15;25.40;;;;;;;2.02;74.02;102688.72;1781681;80;20972;-84
2022/12/02 05:05:41;;;;;;;50.90;25.97;;;;;;;1.97;73.99;102690.91;1782361;79;21790;-79
2022/12/02 05:08:08;;;;;;;49.00;25.05;;;;;;;1.95;74.03;102695.03;1781806;80;20982;-83
2022/12/02 05:10:34;;;;;;;50.78;25.57;;;;;;;1.96;74.12;102691.67;1782068;79;20967;-79
2022/12/02 05:13:01;;;;;;;50.15;25.82;;;;;;;1.96;74.11;102694.27;1781812;80;21519;-87
2022/12/02 05:15:28;;;;;;;55.30;29.52;;;;;;;1.97;74.13;102692.58;1784868;80;21425;-84
2022/12/02 05:17:55;;;;;;;53.87;28.27;;;;;;;1.96;74.12;102699.86;1782371;80;21754;-82
2022/12/02 05:20:22;;;;;;;54.13;29.18;;;;;;;1.93;74.15;102696.58;1784391;80;21014;-84
2022/12/02 05:22:48;;;;;;;50.80;26.75;;;;;;;1.93;74.18;102696.58;1783967;80;20959;-84
2022/12/02 05:25:15;;;;;;;54.85;26.95;;;;;;;1.99;74.30;102695.86;1784063;80;21184;-83
2022/12/02 05:27:42;;;;;;;49.35;26.57;;;;;;;1.93;74.17;102690.09;1784239;80;21098;-81
2022/12/02 05:30:11;;;;;;;50.25;25.97;;;;;;;1.96;74.22;102697.27;1782345;80;21769;-85
2022/12/02 05:32:37;;;;;;;55.78;28.17;;;;;;;1.96;74.26;102700.77;1747901;80;21034;-83
2022/12/02 05:35:09;;;;;;;53.48;27.40;;;;;;;1.94;74.17;102698.42;1782520;80;21053;-82
2022/12/02 05:37:34;;;;;;;57.25;28.95;;;;;;;1.89;74.12;102704.47;1777653;80;21008;-82
2022/12/02 05:40:01;;;;;;;62.30;28.98;;;;;;;1.84;74.16;102705.76;1782208;80;21117;-83
2022/12/02 05:42:28;;;;;;;56.75;27.65;;;;;;;1.82;74.23;102701.17;1782232;80;22567;-82
2022/12/02 05:44:58;;;;;;;52.23;27.13;;;;;;;1.79;74.26;102697.92;1779551;80;21038;-84
2022/12/02 05:47:25;;;;;;;54.65;28.12;;;;;;;1.78;74.32;102702.97;1784145;80;21023;-86
2022/12/02 05:49:51;;;;;;;55.80;27.93;;;;;;;1.79;74.38;102704.81;1781746;80;21639;-85
2022/12/02 05:52:27;;;;;;;62.20;28.35;;;;;;;1.79;74.41;102702.22;1747973;81;21092;-85
2022/12/02 05:54:57;;;;;;;54.30;26.00;;;;;;;1.79;74.49;102708.70;1748951;80;21757;-81
2022/12/02 05:57:26;;;;;;;55.52;26.80;;;;;;;1.81;74.53;102709.76;1754411;80;21114;-83
2022/12/02 06:02:38;;;;;;;58.45;28.70;;;;;;;1.86;74.54;102704.58;1750592;80;22859;-80
2022/12/02 06:05:24;;;;;;;64.65;28.83;;;;;;;1.84;74.59;102705.76;1728803;81;21141;-83
2022/12/02 06:07:54;;;;;;;64.20;30.12;;;;;;;1.83;74.60;102708.21;1723641;81;21796;-82
2022/12/02 06:10:25;;;;;;;63.65;29.18;;;;;;;1.77;74.40;102713.75;1731060;81;21027;-81
2022/12/02 06:12:59;;;;;;;68.72;30.92;;;;;;;1.67;74.52;102709.41;1723638;81;21457;-81
2022/12/02 06:15:36;;;;;;;66.17;29.77;;;;;;;1.67;74.72;102716.25;1726043;81;21007;-81
2022/12/02 06:18:17;;;;;;;64.82;29.18;;;;;;;1.69;74.75;102717.30;1723900;81;20996;-81
2022/12/02 06:20:49;;;;;;;65.50;29.87;;;;;;;1.66;74.75;102711.85;1696772;82;21027;-82
2022/12/02 06:23:17;;;;;;;67.67;30.08;;;;;;;1.66;74.80;102722.23;1723171;82;20974;-84
2022/12/02 06:25:44;;;;;;;70.05;30.70;;;;;;;1.65;74.82;102720.39;1724318;82;20965;-84
2022/12/02 06:28:35;;;;;;;68.40;31.15;;;;;;;1.64;74.90;102722.48;1732840;81;21058;-84
2022/12/02 06:31:23;;;;;;;67.03;30.85;;;;;;;1.65;74.92;102724.29;1723976;81;21058;-84
2022/12/02 06:33:52;;;;;;;65.32;30.65;;;;;;;1.65;74.95;102722.63;1723557;82;22626;-84
2022/12/02 06:36:25;;;;;;;60.78;29.75;;;;;;;1.63;74.92;102726.73;1728958;81;21054;-84
2022/12/02 06:39:02;;;;;;;60.63;29.82;;;;;;;1.64;75.03;102722.48;1723633;81;21562;-84
2022/12/02 06:41:31;;;;;;;60.40;28.30;;;;;;;1.60;74.97;102730.37;1726236;81;21062;-82
2022/12/02 06:47:36;;;;;;;64.92;31.70;;;;;;;1.46;74.99;102741.13;1724375;81;21797;-84
2022/12/02 06:50:22;;;;;;;63.02;31.00;;;;;;;1.42;75.11;102738.63;1728448;81;21095;-85
2022/12/02 06:52:48;;;;;;;62.65;29.95;;;;;;;1.32;75.17;102726.48;1724879;81;21038;-84
2022/12/02 06:55:34;;;;;;;63.55;30.30;;;;;;;1.44;75.20;102745.27;1726086;81;21089;-83
2022/12/02 06:58:39;;;;;;;64.82;30.40;;;;;;;1.43;75.23;102747.36;1723801;81;21067;-83
2022/12/02 07:01:25;;;;;;;63.73;30.77;;;;;;;1.45;75.24;102748.02;1721664;81;21723;-83
2022/12/02 07:04:04;;;;;;;62.78;30.23;;;;;;;1.44;75.34;102747.47;1713605;82;21049;-83
2022/12/02 07:06:31;;;;;;;59.55;29.82;;;;;;;1.47;75.35;102749.07;1718615;82;21065;-81
2022/12/02 07:09:16;;;;;;;62.13;31.57;;;;;;;1.43;75.24;102745.66;1692304;82;21039;-83
2022/12/02 07:11:50;;;;;;;65.45;31.52;;;;;;;1.40;75.36;102747.05;1714911;82;21086;-81
2022/12/02 07:14:24;;;;;;;68.35;31.55;;;;;;;1.45;75.48;102753.59;1691082;83;21725;-81
2022/12/02 07:16:52;;;;;;;67.15;31.62;;;;;;;1.48;75.47;102752.56;1719999;83;20981;-85
2022/12/02 07:19:23;;;;;;;70.32;30.88;;;;;;;1.49;75.45;102753.11;1718803;83;20972;-85
2022/12/02 07:21:49;;;;;;;63.05;29.90;;;;;;;1.48;75.33;102759.05;1720962;83;20998;-85
2022/12/02 07:24:18;;;;;;;59.38;30.15;;;;;;;1.43;75.32;102752.55;1720925;82;20995;-83
2022/12/02 07:26:45;;;;;;;54.77;28.92;;;;;;;1.42;75.32;102762.38;1691038;82;21734;-83
2022/12/02 07:29:15;;;;;;;62.25;30.48;;;;;;;1.37;75.27;102761.96;1723153;82;21034;-84
2022/12/02 07:31:43;;;;;;;64.90;30.88;;;;;;;1.37;75.43;102756.77;1686299;82;21033;-86
2022/12/02 07:34:13;;;;;;;59.58;30.25;;;;;;;1.40;75.47;102754.84;1661504;86;21076;-85
2022/12/02 07:36:40;;;;;;;55.90;28.83;;;;;;;1.42;75.53;102759.39;1641037;86;21019;-85
2022/12/02 07:39:07;;;;;;;59.98;30.15;;;;;;;1.43;75.43;102759.94;1665503;84;21727;-83
2022/12/02 07:41:34;;;;;;;65.22;31.12;;;;;;;1.41;75.41;102762.77;1665604;85;21058;-81
2022/12/02 07:44:01;;;;;;;56.02;29.57;;;;;;;1.42;75.51;102755.50;1663844;84;21072;-85
2022/12/02 07:46:27;;;;;;;60.78;30.23;;;;;;;1.46;75.49;102763.19;1680884;84;21003;-85
2022/12/02 07:48:54;;;;;;;58.68;29.55;;;;;;;1.47;75.48;102763.73;1668181;84;21102;-85
2022/12/02 07:51:21;;;;;;;56.48;28.55;;;;;;;1.48;75.46;102758.70;1670337;84;21856;-83
2022/12/02 07:53:48;;;;;;;56.88;28.23;;;;;;;1.52;75.48;102759.87;1663195;84;21088;-85
2022/12/02 07:56:15;;;;;;;53.17;28.00;;;;;;;1.55;75.55;102760.16;1670507;84;21035;-85
2022/12/02 07:58:41;;;;;;;54.10;27.77;;;;;;;1.60;75.46;102757.62;1663440;86;20991;-83
2022/12/02 08:01:08;;;;;;;52.88;27.90;;;;;;;1.60;75.34;102752.43;1675162;84;21017;-83
2022/12/02 08:03:35;;;;;;;50.23;25.70;;;;;;;1.61;75.24;102752.03;1679561;84;21878;-84
2022/12/02 08:06:02;;;;;;;44.25;25.27;;;;;;;1.59;75.15;102749.69;1678643;84;21279;-83
2022/12/02 08:08:28;;;;;;;52.10;26.87;;;;;;;1.58;75.22;102751.38;1681926;84;21004;-85
2022/12/02 08:10:55;;;;;;;48.95;26.50;;;;;;;1.60;75.23;102754.12;1680957;84;21004;-85
2022/12/02 08:13:22;;;;;;;47.55;24.67;;;;;;;1.63;75.34;102754.39;1681048;84;21026;-85
2022/12/02 08:15:49;;;;;;;45.52;25.95;;;;;;;1.67;75.30;102755.19;1680441;84;22944;-85
2022/12/02 08:18:15;;;;;;;46.00;24.98;;;;;;;1.66;75.22;102750.39;1688377;84;21548;-85
2022/12/02 08:20:42;;;;;;;39.00;22.70;;;;;;;1.67;75.17;102757.43;1681529;83;21040;-85
2022/12/02 08:23:09;;;;;;;35.33;19.82;;;;;;;1.68;75.09;102757.03;1683797;84;21164;-83
2022/12/02 08:25:36;;;;;;;37.60;20.68;;;;;;;1.67;74.99;102757.43;1679912;84;21024;-85
2022/12/02 08:28:02;;;;;;;33.80;20.02;;;;;;;1.68;74.91;102763.53;1675062;84;21772;-85
2022/12/02 08:30:29;;;;;;;32.48;18.17;;;;;;;1.66;74.86;102759.48;1674291;84;21091;-85
2022/12/02 08:32:56;;;;;;;34.30;19.20;;;;;;;1.68;74.87;102759.63;1676027;83;21036;-83
2022/12/02 08:35:22;;;;;;;35.40;20.10;;;;;;;1.69;74.81;102758.84;1679046;84;21010;-85
2022/12/02 08:37:49;;;;;;;38.30;20.68;;;;;;;1.64;74.66;102758.43;1680381;84;21044;-85
2022/12/02 08:40:16;;;;;;;43.98;24.15;;;;;;;1.62;74.66;102753.48;1680211;84;21742;-85
2022/12/02 08:42:43;;;;;;;45.25;25.48;;;;;;;1.62;74.71;102759.97;1684907;84;21158;-85
2022/12/02 08:45:10;;;;;;;45.83;24.85;;;;;;;1.66;74.77;102762.08;1675024;84;21059;-85
2022/12/02 08:47:36;;;;;;;46.40;23.20;;;;;;;1.68;74.62;102759.23;1673959;84;21572;-83
2022/12/02 08:50:04;;;;;;;33.35;19.27;;;;;;;1.66;74.48;102763.77;1675634;84;21072;-85
2022/12/02 08:52:31;;;;;;;37.28;20.92;;;;;;;1.61;74.36;102761.13;1678232;83;21740;-85
2022/12/02 08:54:58;;;;;;;34.75;19.77;;;;;;;1.59;74.40;102761.36;1678758;84;21035;-84
2022/12/02 08:57:25;;;;;;;37.33;20.65;;;;;;;1.61;74.51;102768.52;1674773;84;21023;-83
2022/12/02 08:59:52;;;;;;;38.42;21.30;;;;;;;1.60;74.47;102768.40;1679602;84;21934;-81
2022/12/02 09:02:20;;;;;;;42.67;25.70;;;;;;;1.62;74.58;102764.26;1670098;84;21079;-83
2022/12/02 09:04:46;;;;;;;45.25;26.60;;;;;;;1.62;74.51;102766.46;1668109;85;21963;-83
2022/12/02 09:07:13;;;;;;;52.67;27.70;;;;;;;1.61;74.52;102771.50;1676120;85;21011;-83
2022/12/02 09:09:45;;;;;;;64.55;31.60;;;;;;;1.56;74.54;102772.39;1669933;84;21031;-83
2022/12/02 09:12:13;;;;;;;52.95;28.55;;;;;;;1.56;74.65;102768.49;1670995;84;21017;-83
2022/12/02 09:14:40;;;;;;;47.85;27.02;;;;;;;1.59;74.72;102771.75;1674993;85;21095;-85
2022/12/02 09:17:07;;;;;;;57.13;28.25;;;;;;;1.62;74.68;102769.06;1674618;84;21749;-85
2022/12/02 09:19:33;;;;;;;56.25;29.23;;;;;;;1.59;74.59;102775.64;1676013;84;21026;-85
2022/12/02 09:22:00;;;;;;;52.90;28.35;;;;;;;1.61;74.73;102776.30;1677785;84;21032;-85
2022/12/02 09:24:27;;;;;;;55.90;28.67;;;;;;;1.65;74.78;102778.44;1677557;84;22502;-85
2022/12/02 09:26:53;;;;;;;51.70;28.25;;;;;;;1.66;74.71;102776.36;1671893;84;21127;-83
2022/12/02 09:29:20;;;;;;;50.98;25.62;;;;;;;1.67;74.78;102773.00;1669779;84;21700;-81
2022/12/02 09:31:51;;;;;;;54.13;27.42;;;;;;;1.70;74.71;102777.56;1677055;84;20996;-81
2022/12/02 09:34:18;;;;;;;52.88;26.05;;;;;;;1.67;74.61;102785.05;1674312;85;21051;-84
2022/12/02 09:36:46;;;;;;;59.88;29.60;;;;;;;1.63;74.61;102782.55;1681509;84;21623;-82
2022/12/02 09:39:12;;;;;;;56.18;28.23;;;;;;;1.62;74.65;102779.84;1677373;84;21007;-82
2022/12/02 09:41:39;;;;;;;50.92;27.02;;;;;;;1.59;74.68;102784.33;1672379;84;21750;-81
2022/12/02 09:44:06;;;;;;;48.42;25.27;;;;;;;1.61;74.74;102778.00;1676168;84;21389;-81
2022/12/02 09:46:32;;;;;;;47.10;26.52;;;;;;;1.63;74.74;102772.55;1679149;85;21815;-82
2022/12/02 09:48:59;;;;;;;41.85;23.12;;;;;;;1.66;74.69;102771.16;1649761;85;20995;-82
2022/12/02 09:51:26;;;;;;;40.40;23.00;;;;;;;1.62;74.50;102770.36;1644925;84;22022;-82
2022/12/02 09:53:53;;;;;;;35.98;22.58;;;;;;;1.57;74.46;102762.91;1674494;85;21926;-82
2022/12/02 09:56:20;;;;;;;39.08;23.62;;;;;;;1.58;74.52;102764.72;1669928;84;21123;-83
2022/12/02 09:58:49;;;;;;;35.88;22.20;;;;;;;1.57;74.42;102768.10;1672152;85;21122;-83
2022/12/02 10:01:15;;;;;;;45.52;27.27;;;;;;;1.54;74.42;102764.45;1673058;85;21117;-84
2022/12/02 10:03:42;;;;;;;51.02;29.12;;;;;;;1.52;74.46;102765.99;1668488;85;21086;-82
2022/12/02 10:06:17;;;;;;;48.28;25.25;;;;;;;1.53;74.52;102762.61;1659307;85;22502;-82
2022/12/02 10:08:43;;;;;;;37.23;21.42;;;;;;;1.49;74.51;102750.12;1638557;85;21591;-82
2022/12/02 10:11:23;;;;;;;32.88;20.43;;;;;;;1.54;74.43;102763.16;1648787;85;21561;-82
2022/12/02 10:13:49;;;;;;;35.98;21.10;;;;;;;1.56;74.43;102755.52;1667279;85;21100;-82
2022/12/02 10:16:16;;;;;;;31.70;21.07;;;;;;;1.58;74.40;102761.77;1656259;85;21161;-84
2022/12/02 10:18:43;;;;;;;31.02;20.10;;;;;;;1.59;74.30;102764.86;1672360;85;22925;-84
2022/12/02 10:21:10;;;;;;;28.92;18.20;;;;;;;1.57;74.25;102767.70;1659154;85;21165;-84
2022/12/02 10:24:00;;;;;;;28.23;17.95;;;;;;;1.56;74.21;102765.90;1664942;84;21164;-82
2022/12/02 10:26:27;;;;;;;31.55;18.35;;;;;;;1.58;74.24;102769.55;1659374;85;21065;-82
2022/12/02 10:29:06;;;;;;;26.37;17.50;;;;;;;1.58;74.17;102768.25;1668706;85;22336;-83
2022/12/02 10:31:33;;;;;;;30.25;20.08;;;;;;;1.57;74.04;102770.30;1662679;85;21729;-83
2022/12/02 10:34:04;;;;;;;28.83;18.15;;;;;;;1.48;73.84;102768.14;1656409;85;21148;-81
2022/12/02 10:36:40;;;;;;;31.02;17.90;;;;;;;1.46;73.96;102763.19;1662568;85;21077;-83
2022/12/02 10:39:24;;;;;;;25.35;16.32;;;;;;;1.44;73.96;102760.45;1633003;85;21114;-81
2022/12/02 10:42:12;;;;;;;30.57;17.77;;;;;;;1.45;73.92;102773.97;1658542;85;21568;-83
2022/12/02 10:44:41;;;;;;;27.67;17.23;;;;;;;1.40;73.81;102770.41;1633802;85;21794;-81
2022/12/02 10:47:18;;;;;;;27.87;19.07;;;;;;;1.37;73.88;102778.83;1669560;84;21126;-83
2022/12/02 10:49:55;;;;;;;33.83;19.42;;;;;;;1.41;73.95;102781.30;1663508;85;21005;-83
2022/12/02 10:52:34;;;;;;;29.65;18.30;;;;;;;1.43;73.99;102780.70;1641102;85;21037;-81
2022/12/02 10:55:02;;;;;;;31.52;19.60;;;;;;;1.50;74.05;102776.62;1662701;84;21025;-83
2022/12/02 10:57:30;;;;;;;33.90;20.57;;;;;;;1.60;74.10;102772.30;1672055;85;21745;-81
2022/12/02 10:59:57;;;;;;;27.42;18.70;;;;;;;1.68;73.99;102767.02;1644863;85;21051;-85
2022/12/02 11:02:54;;;;;;;31.02;19.55;;;;;;;1.69;73.72;102762.73;1670862;84;21038;-81
2022/12/02 11:05:23;;;;;;;30.60;19.00;;;;;;;1.71;73.71;102753.44;1663178;84;21037;-81
2022/12/02 11:08:20;;;;;;;28.17;18.05;;;;;;;1.85;73.74;102745.61;1652755;84;21007;-83
2022/12/02 11:10:51;;;;;;;23.83;14.55;;;;;;;1.92;73.62;102740.22;1652501;84;21905;-85
2022/12/02 11:13:34;;;;;;;23.38;15.65;;;;;;;1.97;73.41;102733.77;1676209;84;21027;-81
2022/12/02 11:16:34;;;;;;;24.03;14.77;;;;;;;2.03;73.34;102733.02;1647789;84;21007;-81
2022/12/02 11:19:36;;;;;;;23.80;14.98;;;;;;;2.14;73.26;102736.20;1669408;84;21201;-84
2022/12/02 11:22:03;;;;;;;25.52;16.45;;;;;;;2.34;73.33;102725.39;1724848;81;20967;-84
2022/12/02 11:24:35;;;;;;;24.82;16.42;;;;;;;2.42;72.95;102730.91;1715983;83;21788;-84
2022/12/02 11:27:05;;;;;;;30.90;16.35;;;;;;;2.37;72.62;102727.38;1716404;82;20993;-83
2022/12/02 11:29:41;;;;;;;30.12;19.73;;;;;;;2.33;72.56;102736.58;1718581;82;20988;-84
2022/12/02 11:32:38;;;;;;;27.05;17.50;;;;;;;2.31;72.54;102729.03;1721159;82;21113;-85
2022/12/02 11:35:09;;;;;;;27.25;16.82;;;;;;;2.27;72.30;102731.74;1719775;81;21731;-84